createdAt,value
2023-03-19T00:00:44.658Z,97489.69
2023-03-19T00:03:11.665Z,97485.13
2023-03-19T00:05:38.661Z,97486.34
2023-03-19T00:08:06.208Z,97495.84
2023-03-19T00:10:33.285Z,97500.44
2023-03-19T00:13:00.668Z,97497.31
2023-03-19T00:15:27.655Z,97495.50
2023-03-19T00:17:56.550Z,97498.00
2023-03-19T00:20:23.600Z,97492.25
2023-03-19T00:22:50.622Z,97493.28
2023-03-19T00:25:17.957Z,97500.44
2023-03-19T00:27:45.003Z,97491.69
2023-03-19T00:30:12.501Z,97499.63
2023-03-19T00:32:40.457Z,97502.56
2023-03-19T00:35:08.787Z,97503.13
2023-03-19T00:37:37.333Z,97501.88
2023-03-19T00:40:05.480Z,97504.09
2023-03-19T00:42:34.897Z,97508.63
2023-03-19T00:45:01.894Z,97504.56
2023-03-19T00:47:28.969Z,97509.44
2023-03-19T00:49:56.585Z,97503.16
2023-03-19T00:52:23.631Z,97513.78
2023-03-19T00:54:51.143Z,97508.31
2023-03-19T00:57:19.575Z,97511.69
2023-03-19T00:59:46.537Z,97509.03
2023-03-19T01:02:13.556Z,97511.13
2023-03-19T01:04:41.246Z,97510.94
2023-03-19T01:07:08.613Z,97511.72
2023-03-19T01:09:35.971Z,97512.13
2023-03-19T01:12:04.791Z,97505.81
2023-03-19T01:14:33.225Z,97507.19
2023-03-19T01:17:00.893Z,97501.69
2023-03-19T01:19:28.725Z,97507.66
2023-03-19T01:21:55.841Z,97508.06
2023-03-19T01:24:23.814Z,97505.66
2023-03-19T01:26:54.130Z,97513.41
2023-03-19T01:29:35.104Z,97509.41
2023-03-19T01:32:10.655Z,97509.50
2023-03-19T01:34:57.979Z,97515.44
2023-03-19T01:37:25.839Z,97509.47
2023-03-19T01:39:53.371Z,97506.25
2023-03-19T01:42:20.447Z,97506.41
2023-03-19T01:44:57.364Z,97511.63
2023-03-19T01:47:41.680Z,97510.03
2023-03-19T01:50:25.909Z,97514.25
2023-03-19T01:53:16.121Z,97516.78
2023-03-19T01:56:13.006Z,97522.06
2023-03-19T01:58:57.459Z,97523.31
2023-03-19T02:01:58.000Z,97520.75
2023-03-19T02:04:27.584Z,97522.19
2023-03-19T02:06:59.588Z,97532.84
2023-03-19T02:09:28.746Z,97537.78
2023-03-19T02:11:56.753Z,97543.22
2023-03-19T02:14:24.189Z,97552.44
2023-03-19T02:16:52.192Z,97548.97
2023-03-19T02:19:40.932Z,97555.09
2023-03-19T02:22:11.119Z,97547.53
2023-03-19T02:24:51.200Z,97542.97
2023-03-19T02:27:20.338Z,97565.72
2023-03-19T02:29:50.249Z,97574.47
2023-03-19T02:32:17.530Z,97584.66
2023-03-19T02:34:44.943Z,97571.69
2023-03-19T02:37:20.016Z,97578.03
2023-03-19T02:39:59.739Z,97568.56
2023-03-19T02:42:30.168Z,97592.94
2023-03-19T02:44:58.131Z,97592.59
2023-03-19T02:47:26.503Z,97585.38
2023-03-19T02:49:53.896Z,97588.06
2023-03-19T02:52:21.633Z,97594.38
2023-03-19T02:54:48.939Z,97597.06
2023-03-19T02:57:16.206Z,97590.13
2023-03-19T02:59:43.681Z,97595.50
2023-03-19T03:02:11.101Z,97597.94
2023-03-19T03:04:38.361Z,97606.13
2023-03-19T03:07:06.239Z,97599.69
2023-03-19T03:09:33.466Z,97594.41
2023-03-19T03:12:00.944Z,97601.97
2023-03-19T03:14:28.044Z,97604.00
2023-03-19T03:16:57.397Z,97606.06
2023-03-19T03:19:24.738Z,97603.59
2023-03-19T03:21:52.151Z,97608.56
2023-03-19T03:24:19.329Z,97611.38
2023-03-19T03:26:46.388Z,97616.09
2023-03-19T03:29:15.566Z,97611.38
2023-03-19T03:31:42.735Z,97601.56
2023-03-19T03:34:10.325Z,97602.16
2023-03-19T03:36:37.620Z,97610.97
2023-03-19T03:39:05.096Z,97622.47
2023-03-19T03:41:32.243Z,97624.13
2023-03-19T03:44:01.178Z,97615.88
2023-03-19T03:46:28.615Z,97620.44
2023-03-19T03:48:56.118Z,97618.19
2023-03-19T03:51:23.848Z,97617.94
2023-03-19T03:53:51.090Z,97612.81
2023-03-19T03:56:18.775Z,97614.06
2023-03-19T03:58:45.999Z,97602.41
2023-03-19T04:01:16.790Z,97602.75
2023-03-19T04:03:46.881Z,97600.75
2023-03-19T04:06:23.257Z,97591.94
2023-03-19T04:09:05.392Z,97603.25
2023-03-19T04:11:32.380Z,97586.50
2023-03-19T04:13:59.859Z,97586.28
2023-03-19T04:16:28.701Z,97592.44
2023-03-19T04:18:56.018Z,97589.38
2023-03-19T04:21:23.048Z,97591.41
2023-03-19T04:23:50.019Z,97591.19
2023-03-19T04:26:17.424Z,97600.59
2023-03-19T04:28:44.456Z,97598.97
2023-03-19T04:31:12.606Z,97601.78
2023-03-19T04:33:43.563Z,97605.31
2023-03-19T04:36:11.125Z,97604.66
2023-03-19T04:38:38.664Z,97608.94
2023-03-19T04:41:05.955Z,97604.69
2023-03-19T04:43:36.449Z,97611.00
2023-03-19T04:46:06.967Z,97605.31
2023-03-19T04:48:36.592Z,97614.50
2023-03-19T04:51:04.077Z,97629.03
2023-03-19T04:53:31.485Z,97631.50
2023-03-19T04:55:58.501Z,97633.72
2023-03-19T04:58:26.680Z,97634.31
2023-03-19T05:01:00.128Z,97637.34
2023-03-19T05:03:47.244Z,97627.59
2023-03-19T05:06:14.368Z,97627.56
2023-03-19T05:08:41.832Z,97626.59
2023-03-19T05:11:09.095Z,97624.50
2023-03-19T05:13:55.241Z,97638.41
2023-03-19T05:16:23.384Z,97630.88
2023-03-19T05:18:50.943Z,97640.44
2023-03-19T05:21:18.666Z,97644.94
2023-03-19T05:23:46.092Z,97642.91
2023-03-19T05:26:13.709Z,97642.06
2023-03-19T05:29:00.815Z,97647.81
2023-03-19T05:31:38.492Z,97652.69
2023-03-19T05:34:05.741Z,97651.91
2023-03-19T05:36:34.651Z,97649.47
2023-03-19T05:39:08.300Z,97655.19
2023-03-19T05:41:38.081Z,97665.78
2023-03-19T05:44:07.239Z,97665.00
2023-03-19T05:46:57.358Z,97657.28
2023-03-19T05:49:29.170Z,97650.69
2023-03-19T05:51:56.160Z,97650.25
2023-03-19T05:54:23.781Z,97657.63
2023-03-19T05:57:00.801Z,97659.44
2023-03-19T05:59:38.493Z,97662.72
2023-03-19T06:02:41.907Z,97658.63
2023-03-19T06:05:35.790Z,97660.88
2023-03-19T06:08:15.469Z,97666.53
2023-03-19T06:11:05.635Z,97680.34
2023-03-19T06:13:34.278Z,97686.59
2023-03-19T06:16:07.424Z,97688.00
2023-03-19T06:18:38.243Z,97679.91
2023-03-19T06:21:09.844Z,97678.88
2023-03-19T06:23:37.124Z,97683.56
2023-03-19T06:26:06.632Z,97689.94
2023-03-19T06:28:42.305Z,97693.78
2023-03-19T06:31:09.798Z,97690.94
2023-03-19T06:33:56.392Z,97691.94
2023-03-19T06:36:28.970Z,97686.34
2023-03-19T06:38:56.718Z,97695.19
2023-03-19T06:41:25.104Z,97695.00
2023-03-19T06:43:53.751Z,97697.75
2023-03-19T06:46:20.758Z,97697.94
2023-03-19T06:48:48.334Z,97689.59
2023-03-19T06:51:15.836Z,97682.59
2023-03-19T06:53:42.788Z,97685.03
2023-03-19T06:56:10.346Z,97691.88
2023-03-19T06:58:37.315Z,97692.16
2023-03-19T07:01:05.023Z,97694.41
2023-03-19T07:03:32.075Z,97705.69
2023-03-19T07:05:59.209Z,97701.72
2023-03-19T07:08:29.654Z,97699.31
2023-03-19T07:10:57.185Z,97707.16
2023-03-19T07:13:24.573Z,97703.81
2023-03-19T07:15:51.532Z,97695.22
2023-03-19T07:18:18.566Z,97697.03
2023-03-19T07:20:46.599Z,97702.41
2023-03-19T07:23:13.576Z,97700.34
2023-03-19T07:25:40.784Z,97704.19
2023-03-19T07:28:08.485Z,97706.94
2023-03-19T07:30:36.208Z,97704.84
2023-03-19T07:33:03.662Z,97704.97
2023-03-19T07:35:31.100Z,97708.78
2023-03-19T07:37:59.390Z,97712.41
2023-03-19T07:40:27.316Z,97717.50
2023-03-19T07:42:54.369Z,97717.47
2023-03-19T07:45:22.881Z,97717.69
2023-03-19T07:47:53.064Z,97712.81
2023-03-19T07:50:20.451Z,97716.50
2023-03-19T07:52:49.123Z,97711.78
2023-03-19T07:55:16.481Z,97718.53
2023-03-19T07:57:43.513Z,97722.25
2023-03-19T08:00:12.164Z,97722.66
2023-03-19T08:02:45.365Z,97717.94
2023-03-19T08:05:12.649Z,97712.41
2023-03-19T08:07:39.717Z,97715.28
2023-03-19T08:10:08.644Z,97721.41
2023-03-19T08:12:41.146Z,97725.28
2023-03-19T08:15:10.999Z,97718.97
2023-03-19T08:17:38.914Z,97724.06
2023-03-19T08:20:09.524Z,97724.47
2023-03-19T08:22:38.491Z,97726.09
2023-03-19T08:25:06.976Z,97716.69
2023-03-19T08:27:35.710Z,97723.03
2023-03-19T08:30:05.726Z,97723.63
2023-03-19T08:32:32.780Z,97718.56
2023-03-19T08:35:00.370Z,97721.00
2023-03-19T08:37:27.814Z,97725.31
2023-03-19T08:39:54.858Z,97719.75
2023-03-19T08:42:22.756Z,97722.22
2023-03-19T08:44:50.675Z,97714.47
2023-03-19T08:47:18.347Z,97721.66
2023-03-19T08:49:45.356Z,97719.56
2023-03-19T08:52:12.611Z,97716.06
2023-03-19T08:54:39.585Z,97725.09
2023-03-19T08:57:06.712Z,97730.41
2023-03-19T08:59:34.378Z,97733.28
2023-03-19T09:02:02.203Z,97718.56
2023-03-19T09:04:29.733Z,97725.09
2023-03-19T09:06:56.815Z,97732.03
2023-03-19T09:09:24.958Z,97733.28
2023-03-19T09:11:52.094Z,97734.06
2023-03-19T09:14:20.629Z,97733.28
2023-03-19T09:16:47.900Z,97744.31
2023-03-19T09:19:15.399Z,97736.13
2023-03-19T09:21:42.674Z,97736.34
2023-03-19T09:24:10.524Z,97738.59
2023-03-19T09:26:38.006Z,97733.28
2023-03-19T09:29:05.077Z,97731.97
2023-03-19T09:31:32.204Z,97734.28
2023-03-19T09:33:59.256Z,97733.66
2023-03-19T09:36:26.624Z,97727.50
2023-03-19T09:38:53.611Z,97739.41
2023-03-19T09:41:31.466Z,97730.59
2023-03-19T09:44:24.603Z,97729.97
2023-03-19T09:47:34.712Z,97739.28
2023-03-19T09:50:18.939Z,97736.13
2023-03-19T09:52:49.937Z,97738.38
2023-03-19T09:55:36.051Z,97718.41
2023-03-19T09:58:23.522Z,97716.84
2023-03-19T10:00:52.760Z,97707.59
2023-03-19T10:04:10.757Z,97709.75
2023-03-19T10:06:42.302Z,97709.34
2023-03-19T10:09:27.450Z,97708.53
2023-03-19T10:12:46.469Z,97703.53
2023-03-19T10:15:22.446Z,97706.25
2023-03-19T10:17:58.520Z,97700.91
2023-03-19T10:20:41.008Z,97702.56
2023-03-19T10:23:38.409Z,97693.75
2023-03-19T10:26:11.104Z,97704.28
2023-03-19T10:28:42.131Z,97696.94
2023-03-19T10:31:25.043Z,97686.09
2023-03-19T10:34:05.572Z,97690.63
2023-03-19T10:36:36.551Z,97690.28
2023-03-19T10:39:07.548Z,97690.56
2023-03-19T10:42:01.915Z,97689.69
2023-03-19T10:44:46.223Z,97679.31
2023-03-19T10:47:16.717Z,97671.50
2023-03-19T10:49:43.726Z,97670.69
2023-03-19T10:52:35.947Z,97664.34
2023-03-19T10:55:12.602Z,97656.59
2023-03-19T10:57:43.720Z,97663.88
2023-03-19T11:00:19.222Z,97661.50
2023-03-19T11:02:54.159Z,97660.78
2023-03-19T11:05:31.585Z,97658.00
2023-03-19T11:08:08.348Z,97661.91
2023-03-19T11:10:36.369Z,97653.59
2023-03-19T11:13:21.473Z,97656.91
2023-03-19T11:15:48.870Z,97661.31
2023-03-19T11:18:22.610Z,97666.84
2023-03-19T11:20:58.306Z,97651.09
2023-03-19T11:23:29.331Z,97654.34
2023-03-19T11:26:01.687Z,97649.91
2023-03-19T11:28:33.951Z,97646.97
2023-03-19T11:31:29.107Z,97645.72
2023-03-19T11:34:26.269Z,97638.66
2023-03-19T11:37:14.859Z,97643.78
2023-03-19T11:40:14.615Z,97626.25
2023-03-19T11:43:26.497Z,97625.94
2023-03-19T11:46:11.449Z,97632.06
2023-03-19T11:49:27.354Z,97626.13
2023-03-19T11:52:21.872Z,97615.53
2023-03-19T11:55:28.284Z,97622.31
2023-03-19T11:58:30.002Z,97625.59
2023-03-19T12:01:14.117Z,97618.97
2023-03-19T12:04:00.562Z,97614.78
2023-03-19T12:06:36.853Z,97620.56
2023-03-19T12:09:28.728Z,97611.13
2023-03-19T12:12:26.766Z,97611.31
2023-03-19T12:15:16.741Z,97605.09
2023-03-19T12:17:52.906Z,97602.94
2023-03-19T12:20:53.775Z,97611.28
2023-03-19T12:23:36.961Z,97612.28
2023-03-19T12:26:10.373Z,97604.72
2023-03-19T12:29:04.650Z,97592.84
2023-03-19T12:32:05.420Z,97591.09
2023-03-19T12:34:47.759Z,97582.81
2023-03-19T12:37:30.197Z,97576.28
2023-03-19T12:40:27.817Z,97581.63
2023-03-19T12:42:59.911Z,97582.53
2023-03-19T12:45:35.502Z,97591.88
2023-03-19T12:48:17.393Z,97586.09
2023-03-19T12:50:50.278Z,97585.06
2023-03-19T12:53:47.769Z,97587.91
2023-03-19T12:56:52.083Z,97595.88
2023-03-19T13:00:03.417Z,97583.38
2023-03-19T13:03:13.062Z,97579.75
2023-03-19T13:06:08.471Z,97582.47
2023-03-19T13:08:37.845Z,97587.25
2023-03-19T13:11:14.231Z,97584.84
2023-03-19T13:13:53.476Z,97583.38
2023-03-19T13:16:42.304Z,97571.47
2023-03-19T13:19:28.256Z,97574.06
2023-03-19T13:22:04.586Z,97563.72
2023-03-19T13:24:38.441Z,97566.97
2023-03-19T13:27:13.214Z,97570.31
2023-03-19T13:30:17.791Z,97571.41
2023-03-19T13:32:48.917Z,97586.06
2023-03-19T13:35:49.933Z,97592.69
2023-03-19T13:38:47.298Z,97602.16
2023-03-19T13:41:51.978Z,97599.13
2023-03-19T13:44:21.586Z,97596.97
2023-03-19T13:46:49.760Z,97606.19
2023-03-19T13:49:19.724Z,97604.38
2023-03-19T13:51:50.673Z,97605.31
2023-03-19T13:54:25.340Z,97621.38
2023-03-19T13:57:01.289Z,97637.22
2023-03-19T13:59:32.953Z,97646.78
2023-03-19T14:02:21.480Z,97646.13
2023-03-19T14:05:17.559Z,97654.84
2023-03-19T14:07:53.950Z,97658.72
2023-03-19T14:10:31.774Z,97657.66
2023-03-19T14:13:20.847Z,97648.28
2023-03-19T14:15:51.981Z,97632.59
2023-03-19T14:18:22.949Z,97629.59
2023-03-19T14:20:59.459Z,97617.13
2023-03-19T14:23:39.565Z,97607.59
2023-03-19T14:26:24.389Z,97616.31
2023-03-19T14:29:01.044Z,97602.16
2023-03-19T14:31:51.935Z,97595.38
2023-03-19T14:34:27.170Z,97605.88
2023-03-19T14:37:30.369Z,97613.47
2023-03-19T14:40:44.590Z,97613.00
2023-03-19T14:43:51.429Z,97608.13
2023-03-19T14:46:53.421Z,97610.84
2023-03-19T14:50:10.578Z,97605.19
2023-03-19T14:52:50.986Z,97615.50
2023-03-19T14:55:18.291Z,97609.63
2023-03-19T14:57:45.834Z,97625.91
2023-03-19T15:00:20.524Z,97631.31
2023-03-19T15:02:52.322Z,97619.84
2023-03-19T15:05:39.706Z,97613.09
2023-03-19T15:08:13.167Z,97603.34
2023-03-19T15:11:18.534Z,97603.31
2023-03-19T15:14:32.096Z,97609.53
2023-03-19T15:17:31.254Z,97618.09
2023-03-19T15:20:04.723Z,97628.59
2023-03-19T15:22:35.117Z,97616.59
2023-03-19T15:25:10.871Z,97629.72
2023-03-19T15:27:38.625Z,97637.75
2023-03-19T15:30:28.802Z,97626.75
2023-03-19T15:33:10.546Z,97644.75
2023-03-19T15:35:39.489Z,97649.28
2023-03-19T15:38:13.194Z,97638.22
2023-03-19T15:40:42.530Z,97636.56
2023-03-19T15:43:12.662Z,97648.44
2023-03-19T15:45:42.250Z,97659.91
2023-03-19T15:48:50.555Z,97652.31
2023-03-19T15:51:21.382Z,97660.69
2023-03-19T15:53:49.079Z,97654.28
2023-03-19T15:56:19.262Z,97652.78
2023-03-19T15:58:53.190Z,97663.13
2023-03-19T16:01:21.632Z,97658.56
2023-03-19T16:04:02.035Z,97657.75
2023-03-19T16:06:31.990Z,97659.00
2023-03-19T16:09:14.073Z,97655.44
2023-03-19T16:11:48.068Z,97658.44
2023-03-19T16:14:15.165Z,97655.53
2023-03-19T16:16:46.063Z,97657.88
2023-03-19T16:19:56.378Z,97665.09
2023-03-19T16:22:29.492Z,97667.56
2023-03-19T16:24:57.688Z,97679.00
2023-03-19T16:27:40.280Z,97678.53
2023-03-19T16:30:37.095Z,97684.28
2023-03-19T16:33:06.536Z,97688.69
2023-03-19T16:35:35.236Z,97694.50
2023-03-19T16:38:17.032Z,97703.22
2023-03-19T16:40:50.689Z,97708.31
2023-03-19T16:43:23.298Z,97714.94
2023-03-19T16:45:53.116Z,97720.53
2023-03-19T16:48:20.289Z,97726.09
2023-03-19T16:50:48.010Z,97739.97
2023-03-19T16:53:26.592Z,97738.78
2023-03-19T16:55:56.456Z,97753.31
2023-03-19T16:58:42.941Z,97764.34
2023-03-19T17:01:23.744Z,97766.50
2023-03-19T17:03:51.690Z,97769.03
2023-03-19T17:06:20.340Z,97782.50
2023-03-19T17:08:48.060Z,97782.44
2023-03-19T17:11:28.476Z,97787.66
2023-03-19T17:13:59.157Z,97801.31
2023-03-19T17:16:28.977Z,97787.78
2023-03-19T17:18:56.702Z,97793.13
2023-03-19T17:21:31.256Z,97793.84
2023-03-19T17:23:59.740Z,97792.53
2023-03-19T17:26:29.055Z,97804.91
2023-03-19T17:28:59.590Z,97813.78
2023-03-19T17:31:31.827Z,97802.81
2023-03-19T17:34:07.108Z,97810.59
2023-03-19T17:36:34.807Z,97768.78
2023-03-19T17:39:02.918Z,97778.47
2023-03-19T17:41:32.889Z,97788.47
2023-03-19T17:44:01.393Z,97791.19
2023-03-19T17:46:29.019Z,97789.41
2023-03-19T17:48:56.504Z,97794.88
2023-03-19T17:51:24.038Z,97787.63
2023-03-19T17:53:54.432Z,97787.28
2023-03-19T17:56:25.650Z,97791.00
2023-03-19T17:58:53.330Z,97790.31
2023-03-19T18:01:25.412Z,97792.53
2023-03-19T18:03:55.193Z,97787.25
2023-03-19T18:06:25.721Z,97803.13
2023-03-19T18:08:52.740Z,97791.34
2023-03-19T18:11:19.750Z,97794.44
2023-03-19T18:13:46.789Z,97798.94
2023-03-19T18:16:28.932Z,97800.06
2023-03-19T18:18:59.464Z,97818.31
2023-03-19T18:21:27.678Z,97819.88
2023-03-19T18:23:56.686Z,97820.91
2023-03-19T18:26:24.862Z,97820.25
2023-03-19T18:28:51.985Z,97836.56
2023-03-19T18:31:23.325Z,97832.13
2023-03-19T18:34:12.228Z,97835.00
2023-03-19T18:37:17.513Z,97847.94
2023-03-19T18:39:45.466Z,97843.69
2023-03-19T18:42:13.657Z,97851.72
2023-03-19T18:44:41.086Z,97851.81
2023-03-19T18:47:16.369Z,97854.50
2023-03-19T18:49:45.008Z,97853.03
2023-03-19T18:52:16.574Z,97842.13
2023-03-19T18:54:46.013Z,97826.22
2023-03-19T18:57:14.404Z,97834.22
2023-03-19T18:59:41.807Z,97834.59
2023-03-19T19:02:34.332Z,97846.00
2023-03-19T19:05:02.008Z,97856.59
2023-03-19T19:07:29.114Z,97856.25
2023-03-19T19:09:56.086Z,97860.97
2023-03-19T19:12:23.355Z,97851.53
2023-03-19T19:14:50.877Z,97860.09
2023-03-19T19:17:21.590Z,97855.97
2023-03-19T19:19:48.756Z,97857.00
2023-03-19T19:22:18.136Z,97861.34
2023-03-19T19:24:45.828Z,97863.75
2023-03-19T19:27:22.269Z,97853.63
2023-03-19T19:29:50.314Z,97857.72
2023-03-19T19:32:27.497Z,97864.47
2023-03-19T19:34:54.953Z,97862.72
2023-03-19T19:37:23.749Z,97874.31
2023-03-19T19:39:51.931Z,97874.50
2023-03-19T19:42:21.801Z,97877.09
2023-03-19T19:44:55.668Z,97883.19
2023-03-19T19:47:22.730Z,97888.66
2023-03-19T19:49:50.278Z,97885.44
2023-03-19T19:52:19.252Z,97882.69
2023-03-19T19:54:46.916Z,97883.63
2023-03-19T19:57:21.415Z,97882.13
2023-03-19T19:59:50.297Z,97882.56
2023-03-19T20:02:23.183Z,97887.34
2023-03-19T20:04:50.991Z,97885.72
2023-03-19T20:07:18.086Z,97897.94
2023-03-19T20:09:45.205Z,97894.25
2023-03-19T20:12:31.941Z,97888.28
2023-03-19T20:14:59.591Z,97887.78
2023-03-19T20:17:27.197Z,97892.16
2023-03-19T20:19:54.316Z,97891.66
2023-03-19T20:22:21.473Z,97891.22
2023-03-19T20:24:51.346Z,97900.50
2023-03-19T20:27:26.318Z,97899.81
2023-03-19T20:29:54.197Z,97906.06
2023-03-19T20:32:48.947Z,97901.03
2023-03-19T20:35:19.993Z,97904.06
2023-03-19T20:37:47.133Z,97906.81
2023-03-19T20:40:15.273Z,97906.81
2023-03-19T20:42:46.861Z,97910.38
2023-03-19T20:45:24.133Z,97921.22
2023-03-19T20:47:52.890Z,97917.06
2023-03-19T20:50:25.605Z,97931.13
2023-03-19T20:52:53.773Z,97921.34
2023-03-19T20:55:24.409Z,97934.16
2023-03-19T20:57:52.337Z,97943.03
2023-03-19T21:00:27.736Z,97931.31
2023-03-19T21:02:57.143Z,97929.34
2023-03-19T21:05:30.318Z,97932.63
2023-03-19T21:07:57.593Z,97943.59
2023-03-19T21:10:42.261Z,97935.94
2023-03-19T21:13:17.636Z,97942.16
2023-03-19T21:15:46.359Z,97937.69
2023-03-19T21:18:13.696Z,97937.13
2023-03-19T21:20:43.618Z,97931.09
2023-03-19T21:23:19.565Z,97933.38
2023-03-19T21:25:47.542Z,97941.72
2023-03-19T21:28:29.801Z,97935.03
2023-03-19T21:30:57.731Z,97940.41
2023-03-19T21:33:31.568Z,97949.44
2023-03-19T21:36:00.353Z,97947.28
2023-03-19T21:38:28.205Z,97943.47
2023-03-19T21:41:01.932Z,97942.88
2023-03-19T21:43:35.073Z,97943.16
2023-03-19T21:46:17.357Z,97955.72
2023-03-19T21:48:50.133Z,97949.75
2023-03-19T21:51:17.181Z,97953.00
2023-03-19T21:53:45.632Z,97956.03
2023-03-19T21:56:43.395Z,97939.44
2023-03-19T21:59:22.048Z,97955.38
2023-03-19T22:01:49.324Z,97954.31
2023-03-19T22:04:16.399Z,97956.94
2023-03-19T22:06:45.856Z,97967.66
2023-03-19T22:09:13.519Z,97962.72
2023-03-19T22:11:42.495Z,97963.47
2023-03-19T22:14:27.014Z,97962.22
2023-03-19T22:16:56.043Z,97963.47
2023-03-19T22:19:24.128Z,97965.91
2023-03-19T22:21:51.484Z,97961.47
2023-03-19T22:24:18.456Z,97967.59
2023-03-19T22:26:49.690Z,97964.88
2023-03-19T22:29:20.947Z,97960.50
2023-03-19T22:31:55.773Z,97969.06
2023-03-19T22:34:27.711Z,97977.34
2023-03-19T22:36:55.245Z,97973.22
2023-03-19T22:39:22.269Z,97976.03
2023-03-19T22:41:50.207Z,97975.81
2023-03-19T22:44:36.135Z,97988.03
2023-03-19T22:47:03.167Z,97986.06
2023-03-19T22:49:31.445Z,97984.19
2023-03-19T22:51:58.724Z,97987.97
2023-03-19T22:54:26.664Z,97993.31
2023-03-19T22:56:53.691Z,97999.16
2023-03-19T22:59:20.649Z,98002.81
2023-03-19T23:01:48.197Z,98001.94
2023-03-19T23:04:26.491Z,97990.63
2023-03-19T23:06:55.983Z,98000.38
2023-03-19T23:09:36.118Z,97989.72
2023-03-19T23:12:04.683Z,98000.88
2023-03-19T23:14:32.171Z,98003.91
2023-03-19T23:17:14.272Z,98006.78
2023-03-19T23:19:41.328Z,98002.03
2023-03-19T23:22:16.544Z,98012.81
2023-03-19T23:24:44.664Z,98014.09
2023-03-19T23:27:23.937Z,98032.22
2023-03-19T23:29:51.520Z,98035.00
2023-03-19T23:32:18.549Z,98025.38
2023-03-19T23:34:58.021Z,98027.22
2023-03-19T23:37:28.713Z,98022.44
2023-03-19T23:39:56.509Z,98019.44
2023-03-19T23:42:29.492Z,98031.31
2023-03-19T23:44:59.789Z,98025.22
2023-03-19T23:47:27.634Z,98037.66
2023-03-19T23:49:54.714Z,98035.28
2023-03-19T23:52:21.859Z,98038.97
2023-03-19T23:54:48.859Z,98029.50
2023-03-19T23:57:17.005Z,98040.44
2023-03-19T23:59:53.729Z,98034.84
